Impacts TAF Board
For situational awareness. Not to be used for flight planning purposes.
IDs:

KMEM - Memphis Intl, TN, US

Issued at 1131 UTC 09 Jul 2020
Updated at 1158 UTC 09 Jul 2020
Potential Impact None Slight Moderate High
Time<<10/00Z 10/01Z 10/02Z 10/03Z 10/04Z 10/05Z 10/06Z 10/07Z 10/08Z 10/09Z 10/10Z 10/11Z 10/12Z>>
Type PRVL PRVL PRVL PRVL PRVL PRVL PRVL PRVL PRVL PRVL PRVL PRVL PRVL
VIS >6 >6 >6 >6 >6 >6 >6 >6 >6 >6 >6 >6 >6
CIG 100 100 100 100 100 100 100 250 250 250 250 250 250
Cover BKN BKN BKN BKN BKN BKN BKN BKN BKN BKN BKN BKN BKN
FltCat VFR VFR VFR VFR VFR VFR VFR VFR VFR VFR VFR VFR VFR
WX -- -- -- -- -- -- -- -- -- -- -- -- --
WDir 240 240 240 240 240 240 240 210 210 210 210 210 210
WSpd 5 5 5 5 5 5 5 2 2 2 2 2 2
WGst -- -- -- -- -- -- -- -- -- -- -- -- --
Raw TAF
KMEM 091131Z 0912/1018 22004KT P6SM VCTS BKN050CB
  FM091500 22005KT P6SM BKN070
  FM091800 24007KT P6SM VCSH SCT040
  FM100000 24005KT P6SM BKN100
  FM100700 21002KT P6SM BKN250


METAR Board
Radar Display
Forecast Discussion
For situational awareness. Not to be used for flight planning purposes.